sensor_id;sensor_type;location;lat;lon;timestamp;temperature;humidity
71801;HTU21D;59647;55.838;37.292;2024-03-25T00:00:16;5.93;83.59
71801;HTU21D;59647;55.838;37.292;2024-03-25T00:02:42;5.89;83.88
71801;HTU21D;59647;55.838;37.292;2024-03-25T00:05:09;5.81;83.58
71801;HTU21D;59647;55.838;37.292;2024-03-25T00:07:39;5.80;83.85
71801;HTU21D;59647;55.838;37.292;2024-03-25T00:10:05;5.81;83.22
71801;HTU21D;59647;55.838;37.292;2024-03-25T00:12:35;5.81;83.90
71801;HTU21D;59647;55.838;37.292;2024-03-25T00:15:01;5.82;84.07
71801;HTU21D;59647;55.838;37.292;2024-03-25T00:17:31;5.69;82.84
71801;HTU21D;59647;55.838;37.292;2024-03-25T00:19:57;5.59;83.65
71801;HTU21D;59647;55.838;37.292;2024-03-25T00:22:23;5.62;84.09
71801;HTU21D;59647;55.838;37.292;2024-03-25T00:24:52;5.36;83.91
71801;HTU21D;59647;55.838;37.292;2024-03-25T00:27:19;5.38;84.10
71801;HTU21D;59647;55.838;37.292;2024-03-25T00:29:45;5.35;84.45
71801;HTU21D;59647;55.838;37.292;2024-03-25T00:32:11;5.41;84.45
71801;HTU21D;59647;55.838;37.292;2024-03-25T00:34:37;5.47;84.34
71801;HTU21D;59647;55.838;37.292;2024-03-25T00:37:04;5.45;84.43
71801;HTU21D;59647;55.838;37.292;2024-03-25T00:39:30;5.47;84.55
71801;HTU21D;59647;55.838;37.292;2024-03-25T00:42:00;5.51;84.39
71801;HTU21D;59647;55.838;37.292;2024-03-25T00:44:26;5.47;84.37
71801;HTU21D;59647;55.838;37.292;2024-03-25T00:46:52;5.37;84.56
71801;HTU21D;59647;55.838;37.292;2024-03-25T00:49:18;5.36;84.90
71801;HTU21D;59647;55.838;37.292;2024-03-25T00:51:44;5.43;84.86
71801;HTU21D;59647;55.838;37.292;2024-03-25T00:54:11;5.38;84.62
71801;HTU21D;59647;55.838;37.292;2024-03-25T00:56:37;5.27;85.05
71801;HTU21D;59647;55.838;37.292;2024-03-25T00:59:03;5.23;85.26
71801;HTU21D;59647;55.838;37.292;2024-03-25T01:01:30;5.32;85.35
71801;HTU21D;59647;55.838;37.292;2024-03-25T01:03:58;5.25;85.29
71801;HTU21D;59647;55.838;37.292;2024-03-25T01:06:24;5.18;85.46
71801;HTU21D;59647;55.838;37.292;2024-03-25T01:08:50;5.09;85.50
71801;HTU21D;59647;55.838;37.292;2024-03-25T01:11:16;5.04;85.87
71801;HTU21D;59647;55.838;37.292;2024-03-25T01:13:42;5.00;86.27
71801;HTU21D;59647;55.838;37.292;2024-03-25T01:16:09;4.91;86.61
71801;HTU21D;59647;55.838;37.292;2024-03-25T01:18:36;4.86;86.90
71801;HTU21D;59647;55.838;37.292;2024-03-25T01:21:02;4.83;86.86
71801;HTU21D;59647;55.838;37.292;2024-03-25T01:23:28;4.83;86.78
71801;HTU21D;59647;55.838;37.292;2024-03-25T01:25:54;4.74;86.89
71801;HTU21D;59647;55.838;37.292;2024-03-25T01:28:20;4.68;86.64
71801;HTU21D;59647;55.838;37.292;2024-03-25T01:30:46;4.69;86.32
71801;HTU21D;59647;55.838;37.292;2024-03-25T01:33:12;4.73;85.77
71801;HTU21D;59647;55.838;37.292;2024-03-25T01:35:38;4.66;85.55
71801;HTU21D;59647;55.838;37.292;2024-03-25T01:38:04;4.71;85.45
71801;HTU21D;59647;55.838;37.292;2024-03-25T01:40:30;4.75;85.61
71801;HTU21D;59647;55.838;37.292;2024-03-25T01:43:01;4.79;85.24
71801;HTU21D;59647;55.838;37.292;2024-03-25T01:45:29;4.81;84.92
71801;HTU21D;59647;55.838;37.292;2024-03-25T01:48:03;4.86;84.69
71801;HTU21D;59647;55.838;37.292;2024-03-25T01:50:35;4.81;84.16
71801;HTU21D;59647;55.838;37.292;2024-03-25T01:53:02;4.71;84.64
71801;HTU21D;59647;55.838;37.292;2024-03-25T01:55:30;4.63;84.55
71801;HTU21D;59647;55.838;37.292;2024-03-25T01:57:58;4.56;85.44
71801;HTU21D;59647;55.838;37.292;2024-03-25T02:00:25;4.52;85.52
71801;HTU21D;59647;55.838;37.292;2024-03-25T02:02:53;4.44;86.22
71801;HTU21D;59647;55.838;37.292;2024-03-25T02:05:20;4.45;86.71
71801;HTU21D;59647;55.838;37.292;2024-03-25T02:07:46;4.39;86.87
71801;HTU21D;59647;55.838;37.292;2024-03-25T02:10:15;4.36;87.35
71801;HTU21D;59647;55.838;37.292;2024-03-25T02:12:44;4.39;87.32
71801;HTU21D;59647;55.838;37.292;2024-03-25T02:15:11;4.35;87.56
71801;HTU21D;59647;55.838;37.292;2024-03-25T02:17:37;4.36;87.70
71801;HTU21D;59647;55.838;37.292;2024-03-25T02:20:04;4.42;87.23
71801;HTU21D;59647;55.838;37.292;2024-03-25T02:22:36;4.51;86.96
71801;HTU21D;59647;55.838;37.292;2024-03-25T02:25:07;4.47;86.90
71801;HTU21D;59647;55.838;37.292;2024-03-25T02:27:37;4.47;86.79
71801;HTU21D;59647;55.838;37.292;2024-03-25T02:30:08;4.34;87.20
71801;HTU21D;59647;55.838;37.292;2024-03-25T02:32:36;4.30;87.81
71801;HTU21D;59647;55.838;37.292;2024-03-25T02:35:05;4.34;87.66
71801;HTU21D;59647;55.838;37.292;2024-03-25T02:37:31;4.41;87.48
71801;HTU21D;59647;55.838;37.292;2024-03-25T02:39:59;4.45;87.10
71801;HTU21D;59647;55.838;37.292;2024-03-25T02:42:26;4.39;86.82
71801;HTU21D;59647;55.838;37.292;2024-03-25T02:44:54;4.43;86.84
71801;HTU21D;59647;55.838;37.292;2024-03-25T02:47:20;4.29;87.42
71801;HTU21D;59647;55.838;37.292;2024-03-25T02:49:47;4.37;86.99
71801;HTU21D;59647;55.838;37.292;2024-03-25T02:52:13;4.39;87.28
71801;HTU21D;59647;55.838;37.292;2024-03-25T02:54:39;4.33;87.44
71801;HTU21D;59647;55.838;37.292;2024-03-25T02:57:05;4.44;87.15
71801;HTU21D;59647;55.838;37.292;2024-03-25T02:59:31;4.53;86.77
71801;HTU21D;59647;55.838;37.292;2024-03-25T03:01:57;4.57;86.35
71801;HTU21D;59647;55.838;37.292;2024-03-25T03:04:23;4.61;86.13
71801;HTU21D;59647;55.838;37.292;2024-03-25T03:06:49;4.65;85.99
71801;HTU21D;59647;55.838;37.292;2024-03-25T03:09:15;4.69;85.61
71801;HTU21D;59647;55.838;37.292;2024-03-25T03:11:41;4.66;85.13
71801;HTU21D;59647;55.838;37.292;2024-03-25T03:14:07;4.72;85.18
71801;HTU21D;59647;55.838;37.292;2024-03-25T03:16:33;4.78;84.94
71801;HTU21D;59647;55.838;37.292;2024-03-25T03:18:59;4.83;84.79
71801;HTU21D;59647;55.838;37.292;2024-03-25T03:21:25;4.86;84.36
71801;HTU21D;59647;55.838;37.292;2024-03-25T03:23:51;4.87;84.15
71801;HTU21D;59647;55.838;37.292;2024-03-25T03:26:17;4.88;84.08
71801;HTU21D;59647;55.838;37.292;2024-03-25T03:28:43;4.89;84.09
71801;HTU21D;59647;55.838;37.292;2024-03-25T03:31:09;4.91;83.97
71801;HTU21D;59647;55.838;37.292;2024-03-25T03:33:35;4.94;83.89
71801;HTU21D;59647;55.838;37.292;2024-03-25T03:36:02;4.94;83.79
71801;HTU21D;59647;55.838;37.292;2024-03-25T03:38:28;4.96;83.74
71801;HTU21D;59647;55.838;37.292;2024-03-25T03:41:02;4.94;83.68
71801;HTU21D;59647;55.838;37.292;2024-03-25T03:43:29;4.95;83.62
71801;HTU21D;59647;55.838;37.292;2024-03-25T03:45:55;4.92;83.41
71801;HTU21D;59647;55.838;37.292;2024-03-25T03:48:21;4.92;83.41
71801;HTU21D;59647;55.838;37.292;2024-03-25T03:50:47;4.82;82.83
71801;HTU21D;59647;55.838;37.292;2024-03-25T03:53:12;4.77;83.36
71801;HTU21D;59647;55.838;37.292;2024-03-25T03:55:39;4.79;83.40
71801;HTU21D;59647;55.838;37.292;2024-03-25T03:58:05;4.80;82.81
71801;HTU21D;59647;55.838;37.292;2024-03-25T04:00:35;4.80;82.75
71801;HTU21D;59647;55.838;37.292;2024-03-25T04:03:01;4.67;83.00
71801;HTU21D;59647;55.838;37.292;2024-03-25T04:05:31;4.71;83.26
71801;HTU21D;59647;55.838;37.292;2024-03-25T04:07:57;4.64;83.17
71801;HTU21D;59647;55.838;37.292;2024-03-25T04:10:23;4.58;83.34
71801;HTU21D;59647;55.838;37.292;2024-03-25T04:12:49;4.51;83.65
71801;HTU21D;59647;55.838;37.292;2024-03-25T04:15:16;4.51;84.23
71801;HTU21D;59647;55.838;37.292;2024-03-25T04:17:44;4.61;84.04
71801;HTU21D;59647;55.838;37.292;2024-03-25T04:20:15;4.65;83.82
71801;HTU21D;59647;55.838;37.292;2024-03-25T04:22:42;4.69;83.77
71801;HTU21D;59647;55.838;37.292;2024-03-25T04:25:09;4.75;83.55
71801;HTU21D;59647;55.838;37.292;2024-03-25T04:27:38;4.79;83.55
71801;HTU21D;59647;55.838;37.292;2024-03-25T04:30:06;4.84;83.36
71801;HTU21D;59647;55.838;37.292;2024-03-25T04:32:33;4.87;83.23
71801;HTU21D;59647;55.838;37.292;2024-03-25T04:35:00;4.90;82.89
71801;HTU21D;59647;55.838;37.292;2024-03-25T04:37:27;4.88;82.63
71801;HTU21D;59647;55.838;37.292;2024-03-25T04:39:54;4.91;82.72
71801;HTU21D;59647;55.838;37.292;2024-03-25T04:42:21;4.98;82.90
71801;HTU21D;59647;55.838;37.292;2024-03-25T04:44:47;5.03;82.55
71801;HTU21D;59647;55.838;37.292;2024-03-25T04:47:13;5.02;82.34
71801;HTU21D;59647;55.838;37.292;2024-03-25T04:49:41;5.09;82.61
71801;HTU21D;59647;55.838;37.292;2024-03-25T04:52:07;5.20;82.81
71801;HTU21D;59647;55.838;37.292;2024-03-25T04:54:33;5.26;82.58
71801;HTU21D;59647;55.838;37.292;2024-03-25T04:56:59;5.32;82.55
71801;HTU21D;59647;55.838;37.292;2024-03-25T04:59:28;5.35;82.44
71801;HTU21D;59647;55.838;37.292;2024-03-25T05:01:54;5.42;82.26
71801;HTU21D;59647;55.838;37.292;2024-03-25T05:04:20;5.46;81.83
71801;HTU21D;59647;55.838;37.292;2024-03-25T05:06:46;5.49;81.84
71801;HTU21D;59647;55.838;37.292;2024-03-25T05:09:12;5.57;81.82
71801;HTU21D;59647;55.838;37.292;2024-03-25T05:11:38;5.63;81.46
71801;HTU21D;59647;55.838;37.292;2024-03-25T05:14:04;5.66;81.25
71801;HTU21D;59647;55.838;37.292;2024-03-25T05:16:30;5.71;81.29
71801;HTU21D;59647;55.838;37.292;2024-03-25T05:18:56;5.81;80.98
71801;HTU21D;59647;55.838;37.292;2024-03-25T05:21:22;5.95;80.89
71801;HTU21D;59647;55.838;37.292;2024-03-25T05:23:48;6.11;80.56
71801;HTU21D;59647;55.838;37.292;2024-03-25T05:26:14;6.26;79.95
71801;HTU21D;59647;55.838;37.292;2024-03-25T05:28:40;6.35;79.14
71801;HTU21D;59647;55.838;37.292;2024-03-25T05:31:08;6.35;78.34
71801;HTU21D;59647;55.838;37.292;2024-03-25T05:33:34;6.37;76.68
71801;HTU21D;59647;55.838;37.292;2024-03-25T05:36:01;6.48;78.52
71801;HTU21D;59647;55.838;37.292;2024-03-25T05:38:28;6.61;78.49
71801;HTU21D;59647;55.838;37.292;2024-03-25T05:40:55;6.75;77.57
71801;HTU21D;59647;55.838;37.292;2024-03-25T05:43:21;6.87;75.05
71801;HTU21D;59647;55.838;37.292;2024-03-25T05:45:51;6.93;74.07
71801;HTU21D;59647;55.838;37.292;2024-03-25T05:48:17;6.95;73.66
71801;HTU21D;59647;55.838;37.292;2024-03-25T05:50:43;7.11;74.88
71801;HTU21D;59647;55.838;37.292;2024-03-25T05:53:09;7.23;74.79
71801;HTU21D;59647;55.838;37.292;2024-03-25T05:55:35;7.27;75.25
71801;HTU21D;59647;55.838;37.292;2024-03-25T05:58:01;7.35;73.77
71801;HTU21D;59647;55.838;37.292;2024-03-25T06:00:29;7.46;72.92
71801;HTU21D;59647;55.838;37.292;2024-03-25T06:02:56;7.58;72.13
71801;HTU21D;59647;55.838;37.292;2024-03-25T06:05:22;7.64;73.00
71801;HTU21D;59647;55.838;37.292;2024-03-25T06:07:48;7.48;68.38
71801;HTU21D;59647;55.838;37.292;2024-03-25T06:10:14;7.54;71.15
71801;HTU21D;59647;55.838;37.292;2024-03-25T06:12:40;7.72;69.79
71801;HTU21D;59647;55.838;37.292;2024-03-25T06:15:07;7.81;69.21
71801;HTU21D;59647;55.838;37.292;2024-03-25T06:17:33;7.96;71.57
71801;HTU21D;59647;55.838;37.292;2024-03-25T06:19:59;8.09;66.53
71801;HTU21D;59647;55.838;37.292;2024-03-25T06:22:25;7.93;65.32
71801;HTU21D;59647;55.838;37.292;2024-03-25T06:24:51;7.60;64.19
71801;HTU21D;59647;55.838;37.292;2024-03-25T06:27:19;7.55;66.46
71801;HTU21D;59647;55.838;37.292;2024-03-25T06:29:45;7.49;64.84
71801;HTU21D;59647;55.838;37.292;2024-03-25T06:32:12;7.52;68.01
71801;HTU21D;59647;55.838;37.292;2024-03-25T06:34:56;7.35;66.72
71801;HTU21D;59647;55.838;37.292;2024-03-25T06:37:26;7.45;68.11
71801;HTU21D;59647;55.838;37.292;2024-03-25T06:39:52;7.57;69.28
71801;HTU21D;59647;55.838;37.292;2024-03-25T06:42:19;7.46;64.21
71801;HTU21D;59647;55.838;37.292;2024-03-25T06:44:45;7.33;66.38
71801;HTU21D;59647;55.838;37.292;2024-03-25T06:47:16;7.33;65.14
71801;HTU21D;59647;55.838;37.292;2024-03-25T06:49:42;7.45;68.45
71801;HTU21D;59647;55.838;37.292;2024-03-25T06:52:08;7.60;67.42
71801;HTU21D;59647;55.838;37.292;2024-03-25T06:54:34;7.57;66.17
71801;HTU21D;59647;55.838;37.292;2024-03-25T06:57:20;7.35;61.09
71801;HTU21D;59647;55.838;37.292;2024-03-25T06:59:46;7.11;63.36
71801;HTU21D;59647;55.838;37.292;2024-03-25T07:02:13;7.16;64.50
71801;HTU21D;59647;55.838;37.292;2024-03-25T07:04:39;7.18;61.72
71801;HTU21D;59647;55.838;37.292;2024-03-25T07:07:05;7.40;63.98
71801;HTU21D;59647;55.838;37.292;2024-03-25T07:09:32;7.56;63.00
71801;HTU21D;59647;55.838;37.292;2024-03-25T07:11:58;7.55;62.70
71801;HTU21D;59647;55.838;37.292;2024-03-25T07:14:25;7.69;66.02
71801;HTU21D;59647;55.838;37.292;2024-03-25T07:16:51;7.69;62.69
71801;HTU21D;59647;55.838;37.292;2024-03-25T07:19:17;7.65;64.98
71801;HTU21D;59647;55.838;37.292;2024-03-25T07:21:43;7.71;62.61
71801;HTU21D;59647;55.838;37.292;2024-03-25T07:24:09;7.69;59.83
71801;HTU21D;59647;55.838;37.292;2024-03-25T07:26:35;7.72;61.74
71801;HTU21D;59647;55.838;37.292;2024-03-25T07:29:01;7.86;62.11
71801;HTU21D;59647;55.838;37.292;2024-03-25T07:31:27;8.04;64.04
71801;HTU21D;59647;55.838;37.292;2024-03-25T07:33:53;8.04;60.45
71801;HTU21D;59647;55.838;37.292;2024-03-25T07:36:19;8.23;64.79
71801;HTU21D;59647;55.838;37.292;2024-03-25T07:38:44;8.38;62.51
71801;HTU21D;59647;55.838;37.292;2024-03-25T07:41:10;8.37;58.34
71801;HTU21D;59647;55.838;37.292;2024-03-25T07:43:37;8.32;60.34
71801;HTU21D;59647;55.838;37.292;2024-03-25T07:46:03;8.37;62.65
71801;HTU21D;59647;55.838;37.292;2024-03-25T07:48:29;8.27;59.72
71801;HTU21D;59647;55.838;37.292;2024-03-25T07:50:55;8.46;62.15
71801;HTU21D;59647;55.838;37.292;2024-03-25T07:53:20;8.70;60.18
71801;HTU21D;59647;55.838;37.292;2024-03-25T07:55:46;9.00;61.37
71801;HTU21D;59647;55.838;37.292;2024-03-25T07:58:12;9.33;61.83
71801;HTU21D;59647;55.838;37.292;2024-03-25T08:00:38;9.64;60.27
71801;HTU21D;59647;55.838;37.292;2024-03-25T08:03:04;9.82;57.21
71801;HTU21D;59647;55.838;37.292;2024-03-25T08:05:30;9.95;60.24
71801;HTU21D;59647;55.838;37.292;2024-03-25T08:07:57;9.61;51.98
71801;HTU21D;59647;55.838;37.292;2024-03-25T08:10:23;9.22;56.01
71801;HTU21D;59647;55.838;37.292;2024-03-25T08:12:49;9.31;59.42
71801;HTU21D;59647;55.838;37.292;2024-03-25T08:15:15;9.37;57.74
71801;HTU21D;59647;55.838;37.292;2024-03-25T08:17:41;9.21;54.23
71801;HTU21D;59647;55.838;37.292;2024-03-25T08:20:07;9.16;56.19
71801;HTU21D;59647;55.838;37.292;2024-03-25T08:22:34;9.44;58.72
71801;HTU21D;59647;55.838;37.292;2024-03-25T08:25:00;9.75;59.57
71801;HTU21D;59647;55.838;37.292;2024-03-25T08:27:26;9.88;51.82
71801;HTU21D;59647;55.838;37.292;2024-03-25T08:29:52;9.64;55.41
71801;HTU21D;59647;55.838;37.292;2024-03-25T08:32:19;9.67;55.90
71801;HTU21D;59647;55.838;37.292;2024-03-25T08:34:45;9.65;55.19
71801;HTU21D;59647;55.838;37.292;2024-03-25T08:37:12;9.31;51.76
71801;HTU21D;59647;55.838;37.292;2024-03-25T08:39:38;8.78;56.42
71801;HTU21D;59647;55.838;37.292;2024-03-25T08:42:04;8.88;57.35
71801;HTU21D;59647;55.838;37.292;2024-03-25T08:44:30;8.98;56.81
71801;HTU21D;59647;55.838;37.292;2024-03-25T08:46:56;9.03;56.94
71801;HTU21D;59647;55.838;37.292;2024-03-25T08:49:21;9.22;57.69
71801;HTU21D;59647;55.838;37.292;2024-03-25T08:51:47;9.31;54.14
71801;HTU21D;59647;55.838;37.292;2024-03-25T08:54:13;9.36;55.92
71801;HTU21D;59647;55.838;37.292;2024-03-25T08:56:39;9.18;55.56
71801;HTU21D;59647;55.838;37.292;2024-03-25T08:59:05;9.07;55.65
71801;HTU21D;59647;55.838;37.292;2024-03-25T09:01:31;9.48;57.47
71801;HTU21D;59647;55.838;37.292;2024-03-25T09:03:57;10.05;56.84
71801;HTU21D;59647;55.838;37.292;2024-03-25T09:06:23;10.45;55.85
71801;HTU21D;59647;55.838;37.292;2024-03-25T09:08:49;10.71;51.21
71801;HTU21D;59647;55.838;37.292;2024-03-25T09:11:33;10.79;48.94
71801;HTU21D;59647;55.838;37.292;2024-03-25T09:13:59;10.69;48.01
71801;HTU21D;59647;55.838;37.292;2024-03-25T09:16:28;10.49;53.59
71801;HTU21D;59647;55.838;37.292;2024-03-25T09:18:54;10.37;51.49
71801;HTU21D;59647;55.838;37.292;2024-03-25T09:21:22;10.67;51.29
71801;HTU21D;59647;55.838;37.292;2024-03-25T09:23:50;10.79;52.41
71801;HTU21D;59647;55.838;37.292;2024-03-25T09:26:16;10.89;49.51
71801;HTU21D;59647;55.838;37.292;2024-03-25T09:28:42;10.86;47.06
71801;HTU21D;59647;55.838;37.292;2024-03-25T09:31:08;10.57;45.90
71801;HTU21D;59647;55.838;37.292;2024-03-25T09:33:34;10.40;48.02
71801;HTU21D;59647;55.838;37.292;2024-03-25T09:36:00;10.43;51.88
71801;HTU21D;59647;55.838;37.292;2024-03-25T09:38:27;10.89;49.87
71801;HTU21D;59647;55.838;37.292;2024-03-25T09:40:53;11.39;47.11
71801;HTU21D;59647;55.838;37.292;2024-03-25T09:43:24;11.47;50.30
71801;HTU21D;59647;55.838;37.292;2024-03-25T09:45:51;11.51;47.39
71801;HTU21D;59647;55.838;37.292;2024-03-25T09:48:19;11.47;46.95
71801;HTU21D;59647;55.838;37.292;2024-03-25T09:50:47;11.24;50.27
71801;HTU21D;59647;55.838;37.292;2024-03-25T09:53:14;11.09;46.10
71801;HTU21D;59647;55.838;37.292;2024-03-25T09:55:41;10.58;44.64
71801;HTU21D;59647;55.838;37.292;2024-03-25T09:58:07;10.23;48.88
71801;HTU21D;59647;55.838;37.292;2024-03-25T10:00:33;10.06;50.92
71801;HTU21D;59647;55.838;37.292;2024-03-25T10:03:00;10.08;50.25
71801;HTU21D;59647;55.838;37.292;2024-03-25T10:05:26;10.23;52.97
71801;HTU21D;59647;55.838;37.292;2024-03-25T10:07:52;10.37;50.31
71801;HTU21D;59647;55.838;37.292;2024-03-25T10:10:21;10.54;50.17
71801;HTU21D;59647;55.838;37.292;2024-03-25T10:12:47;10.67;46.90
71801;HTU21D;59647;55.838;37.292;2024-03-25T10:15:16;10.62;51.64
71801;HTU21D;59647;55.838;37.292;2024-03-25T10:17:43;10.63;50.73
71801;HTU21D;59647;55.838;37.292;2024-03-25T10:20:16;10.68;48.76
71801;HTU21D;59647;55.838;37.292;2024-03-25T10:22:43;10.71;49.45
71801;HTU21D;59647;55.838;37.292;2024-03-25T10:25:28;10.77;48.62
71801;HTU21D;59647;55.838;37.292;2024-03-25T10:30:32;10.51;49.32
71801;HTU21D;59647;55.838;37.292;2024-03-25T10:35:34;10.38;50.38
71801;HTU21D;59647;55.838;37.292;2024-03-25T10:38:02;10.57;49.79
71801;HTU21D;59647;55.838;37.292;2024-03-25T10:40:33;10.71;47.80
71801;HTU21D;59647;55.838;37.292;2024-03-25T10:43:04;10.80;48.41
71801;HTU21D;59647;55.838;37.292;2024-03-25T10:45:35;10.89;47.50
71801;HTU21D;59647;55.838;37.292;2024-03-25T10:48:28;11.08;45.84
71801;HTU21D;59647;55.838;37.292;2024-03-25T10:50:56;11.19;48.07
71801;HTU21D;59647;55.838;37.292;2024-03-25T10:53:27;11.48;44.22
71801;HTU21D;59647;55.838;37.292;2024-03-25T10:55:56;11.66;46.17
71801;HTU21D;59647;55.838;37.292;2024-03-25T10:58:43;11.87;49.59
71801;HTU21D;59647;55.838;37.292;2024-03-25T11:01:10;12.01;49.63
71801;HTU21D;59647;55.838;37.292;2024-03-25T11:03:37;12.10;47.76
71801;HTU21D;59647;55.838;37.292;2024-03-25T11:06:03;12.04;45.81
71801;HTU21D;59647;55.838;37.292;2024-03-25T11:08:31;11.97;45.59
71801;HTU21D;59647;55.838;37.292;2024-03-25T11:10:57;11.93;42.94
71801;HTU21D;59647;55.838;37.292;2024-03-25T11:13:23;11.99;49.58
71801;HTU21D;59647;55.838;37.292;2024-03-25T11:15:49;12.33;46.57
71801;HTU21D;59647;55.838;37.292;2024-03-25T11:18:16;12.57;45.83
71801;HTU21D;59647;55.838;37.292;2024-03-25T11:20:45;12.18;48.85
71801;HTU21D;59647;55.838;37.292;2024-03-25T11:23:14;11.76;46.25
71801;HTU21D;59647;55.838;37.292;2024-03-25T11:25:41;11.82;49.12
71801;HTU21D;59647;55.838;37.292;2024-03-25T11:28:11;11.92;47.18
71801;HTU21D;59647;55.838;37.292;2024-03-25T11:30:37;11.89;43.32
71801;HTU21D;59647;55.838;37.292;2024-03-25T11:33:04;11.90;45.25
71801;HTU21D;59647;55.838;37.292;2024-03-25T11:35:49;11.97;46.89
71801;HTU21D;59647;55.838;37.292;2024-03-25T11:38:15;11.98;43.67
71801;HTU21D;59647;55.838;37.292;2024-03-25T11:40:44;12.11;44.54
71801;HTU21D;59647;55.838;37.292;2024-03-25T11:43:17;11.94;46.02
71801;HTU21D;59647;55.838;37.292;2024-03-25T11:45:46;11.83;50.15
71801;HTU21D;59647;55.838;37.292;2024-03-25T11:48:14;11.68;43.06
71801;HTU21D;59647;55.838;37.292;2024-03-25T11:50:40;11.57;46.31
71801;HTU21D;59647;55.838;37.292;2024-03-25T11:53:07;11.55;45.35
71801;HTU21D;59647;55.838;37.292;2024-03-25T11:55:34;11.64;45.96
71801;HTU21D;59647;55.838;37.292;2024-03-25T11:58:00;11.60;46.57
71801;HTU21D;59647;55.838;37.292;2024-03-25T12:00:26;11.81;47.39
71801;HTU21D;59647;55.838;37.292;2024-03-25T12:02:52;11.99;40.61
71801;HTU21D;59647;55.838;37.292;2024-03-25T12:05:18;11.93;40.44
71801;HTU21D;59647;55.838;37.292;2024-03-25T12:07:44;11.88;44.72
71801;HTU21D;59647;55.838;37.292;2024-03-25T12:10:10;12.22;46.38
71801;HTU21D;59647;55.838;37.292;2024-03-25T12:12:57;12.33;41.42
71801;HTU21D;59647;55.838;37.292;2024-03-25T12:15:23;12.25;43.34
71801;HTU21D;59647;55.838;37.292;2024-03-25T12:17:49;12.37;43.35
71801;HTU21D;59647;55.838;37.292;2024-03-25T12:20:19;12.67;46.80
71801;HTU21D;59647;55.838;37.292;2024-03-25T12:22:45;12.90;44.00
71801;HTU21D;59647;55.838;37.292;2024-03-25T12:25:11;12.93;44.02
71801;HTU21D;59647;55.838;37.292;2024-03-25T12:27:38;13.08;45.48
71801;HTU21D;59647;55.838;37.292;2024-03-25T12:30:09;13.25;40.60
71801;HTU21D;59647;55.838;37.292;2024-03-25T12:32:44;13.37;39.75
71801;HTU21D;59647;55.838;37.292;2024-03-25T12:35:14;13.24;39.19
71801;HTU21D;59647;55.838;37.292;2024-03-25T12:37:43;13.33;40.20
71801;HTU21D;59647;55.838;37.292;2024-03-25T12:40:12;13.35;42.77
71801;HTU21D;59647;55.838;37.292;2024-03-25T12:42:38;13.41;42.39
71801;HTU21D;59647;55.838;37.292;2024-03-25T12:45:06;13.20;41.31
71801;HTU21D;59647;55.838;37.292;2024-03-25T12:47:34;13.22;40.21
71801;HTU21D;59647;55.838;37.292;2024-03-25T12:50:00;13.05;42.52
71801;HTU21D;59647;55.838;37.292;2024-03-25T12:52:26;13.04;41.64
71801;HTU21D;59647;55.838;37.292;2024-03-25T12:54:52;13.00;45.06
71801;HTU21D;59647;55.838;37.292;2024-03-25T12:57:18;12.87;43.39
71801;HTU21D;59647;55.838;37.292;2024-03-25T12:59:47;12.96;42.66
71801;HTU21D;59647;55.838;37.292;2024-03-25T13:02:13;13.05;42.41
71801;HTU21D;59647;55.838;37.292;2024-03-25T13:04:40;13.06;44.54
71801;HTU21D;59647;55.838;37.292;2024-03-25T13:07:09;13.00;41.93
71801;HTU21D;59647;55.838;37.292;2024-03-25T13:09:36;13.00;43.61
71801;HTU21D;59647;55.838;37.292;2024-03-25T13:12:02;12.99;42.12
71801;HTU21D;59647;55.838;37.292;2024-03-25T13:14:28;13.06;41.85
71801;HTU21D;59647;55.838;37.292;2024-03-25T13:16:55;13.12;41.07
71801;HTU21D;59647;55.838;37.292;2024-03-25T13:19:21;13.04;41.27
71801;HTU21D;59647;55.838;37.292;2024-03-25T13:21:47;13.14;42.87
71801;HTU21D;59647;55.838;37.292;2024-03-25T13:24:14;13.36;40.81
71801;HTU21D;59647;55.838;37.292;2024-03-25T13:26:40;13.55;40.00
71801;HTU21D;59647;55.838;37.292;2024-03-25T13:29:06;13.74;38.26
71801;HTU21D;59647;55.838;37.292;2024-03-25T13:31:34;13.85;40.56
71801;HTU21D;59647;55.838;37.292;2024-03-25T13:34:00;13.97;40.32
71801;HTU21D;59647;55.838;37.292;2024-03-25T13:36:26;14.10;41.10
71801;HTU21D;59647;55.838;37.292;2024-03-25T13:38:52;14.17;40.90
71801;HTU21D;59647;55.838;37.292;2024-03-25T13:41:19;14.32;41.29
71801;HTU21D;59647;55.838;37.292;2024-03-25T13:43:48;14.41;40.54
71801;HTU21D;59647;55.838;37.292;2024-03-25T13:46:14;14.49;39.35
71801;HTU21D;59647;55.838;37.292;2024-03-25T13:48:40;14.53;38.78
71801;HTU21D;59647;55.838;37.292;2024-03-25T13:51:06;14.54;40.06
71801;HTU21D;59647;55.838;37.292;2024-03-25T13:53:32;14.55;38.96
71801;HTU21D;59647;55.838;37.292;2024-03-25T13:55:58;14.47;39.65
71801;HTU21D;59647;55.838;37.292;2024-03-25T13:58:26;14.50;39.68
71801;HTU21D;59647;55.838;37.292;2024-03-25T14:00:52;14.48;37.17
71801;HTU21D;59647;55.838;37.292;2024-03-25T14:03:18;14.51;38.58
71801;HTU21D;59647;55.838;37.292;2024-03-25T14:05:46;14.19;39.46
71801;HTU21D;59647;55.838;37.292;2024-03-25T14:08:12;13.65;38.98
71801;HTU21D;59647;55.838;37.292;2024-03-25T14:10:39;13.37;38.00
71801;HTU21D;59647;55.838;37.292;2024-03-25T14:13:05;13.18;40.57
71801;HTU21D;59647;55.838;37.292;2024-03-25T14:15:33;12.95;39.52
71801;HTU21D;59647;55.838;37.292;2024-03-25T14:17:59;13.07;37.66
71801;HTU21D;59647;55.838;37.292;2024-03-25T14:20:25;13.27;40.24
71801;HTU21D;59647;55.838;37.292;2024-03-25T14:22:51;13.45;39.72
71801;HTU21D;59647;55.838;37.292;2024-03-25T14:25:17;13.47;39.04
71801;HTU21D;59647;55.838;37.292;2024-03-25T14:27:44;13.22;37.95
71801;HTU21D;59647;55.838;37.292;2024-03-25T14:30:10;12.84;38.71
71801;HTU21D;59647;55.838;37.292;2024-03-25T14:32:37;12.72;40.20
71801;HTU21D;59647;55.838;37.292;2024-03-25T14:35:06;12.74;40.89
71801;HTU21D;59647;55.838;37.292;2024-03-25T14:37:32;12.77;40.31
71801;HTU21D;59647;55.838;37.292;2024-03-25T14:39:58;12.79;39.53
71801;HTU21D;59647;55.838;37.292;2024-03-25T14:42:25;12.76;41.20
71801;HTU21D;59647;55.838;37.292;2024-03-25T14:44:51;12.66;40.75
71801;HTU21D;59647;55.838;37.292;2024-03-25T14:47:17;12.61;40.56
71801;HTU21D;59647;55.838;37.292;2024-03-25T14:49:43;12.60;40.54
71801;HTU21D;59647;55.838;37.292;2024-03-25T14:52:09;12.48;40.19
71801;HTU21D;59647;55.838;37.292;2024-03-25T14:54:36;12.49;41.08
71801;HTU21D;59647;55.838;37.292;2024-03-25T14:57:03;12.38;41.36
71801;HTU21D;59647;55.838;37.292;2024-03-25T14:59:29;12.27;42.14
71801;HTU21D;59647;55.838;37.292;2024-03-25T15:02:01;12.21;41.79
71801;HTU21D;59647;55.838;37.292;2024-03-25T15:04:28;12.22;41.98
71801;HTU21D;59647;55.838;37.292;2024-03-25T15:06:56;12.27;41.42
71801;HTU21D;59647;55.838;37.292;2024-03-25T15:09:22;12.27;41.87
71801;HTU21D;59647;55.838;37.292;2024-03-25T15:11:48;12.11;41.20
71801;HTU21D;59647;55.838;37.292;2024-03-25T15:14:14;11.89;41.16